createdAt,value
2017-06-28T00:00:48.018Z,0
2017-06-28T00:01:56.974Z,0
2017-06-28T00:03:06.491Z,0
2017-06-28T00:04:15.473Z,0
2017-06-28T00:05:24.422Z,0
2017-06-28T00:06:33.378Z,0
2017-06-28T00:07:42.346Z,0
2017-06-28T00:08:51.554Z,0
2017-06-28T00:10:00.586Z,0
2017-06-28T00:11:09.856Z,0
2017-06-28T00:12:18.842Z,0
2017-06-28T00:13:27.795Z,0
2017-06-28T00:14:37.456Z,0
2017-06-28T00:15:46.543Z,0
2017-06-28T00:16:55.501Z,0
2017-06-28T00:18:04.659Z,0
2017-06-28T00:19:13.757Z,0
2017-06-28T00:20:23.217Z,0
2017-06-28T00:21:32.362Z,0
2017-06-28T00:22:41.409Z,0
2017-06-28T00:23:50.454Z,0
2017-06-28T00:24:59.496Z,0
2017-06-28T00:26:08.703Z,0
2017-06-28T00:27:17.683Z,0
2017-06-28T00:28:26.993Z,0
2017-06-28T00:29:35.979Z,0
2017-06-28T00:30:44.942Z,0
2017-06-28T00:31:54.528Z,0
2017-06-28T00:33:03.481Z,0
2017-06-28T00:34:12.495Z,0
2017-06-28T00:35:21.552Z,0
2017-06-28T00:36:30.575Z,0
2017-06-28T00:37:40.102Z,0
2017-06-28T00:38:49.486Z,0
2017-06-28T00:39:58.635Z,0
2017-06-28T00:41:07.911Z,0
2017-06-28T00:42:17.021Z,0
2017-06-28T00:43:26.393Z,0
2017-06-28T00:44:35.658Z,0
2017-06-28T00:45:45.199Z,0
2017-06-28T00:46:54.484Z,0
2017-06-28T00:48:03.571Z,0
2017-06-28T00:49:13.273Z,0
2017-06-28T00:50:22.689Z,0
2017-06-28T00:51:31.764Z,0
2017-06-28T00:52:40.939Z,0
2017-06-28T00:53:50.077Z,0
2017-06-28T00:54:59.861Z,0
2017-06-28T00:56:08.937Z,0
2017-06-28T00:57:17.984Z,0
2017-06-28T00:58:26.979Z,0
2017-06-28T00:59:36.128Z,0
2017-06-28T01:00:45.504Z,0
2017-06-28T01:01:55.248Z,0
2017-06-28T01:03:04.356Z,0
2017-06-28T01:04:13.384Z,0
2017-06-28T01:05:22.628Z,0
2017-06-28T01:06:32.188Z,0
2017-06-28T01:07:41.359Z,0
2017-06-28T01:08:50.544Z,0
2017-06-28T01:09:59.607Z,0
2017-06-28T01:11:08.848Z,0
2017-06-28T01:12:18.180Z,0
2017-06-28T01:13:27.211Z,0
2017-06-28T01:14:36.325Z,0
2017-06-28T01:15:45.353Z,0
2017-06-28T01:16:54.382Z,0
2017-06-28T01:18:04.032Z,0
2017-06-28T01:19:13.124Z,0
2017-06-28T01:20:22.306Z,0
2017-06-28T01:21:31.411Z,0
2017-06-28T01:22:40.689Z,0
2017-06-28T01:23:50.236Z,0
2017-06-28T01:24:59.646Z,0
2017-06-28T01:26:08.706Z,0
2017-06-28T01:27:18.484Z,0
2017-06-28T01:28:27.834Z,0
2017-06-28T01:29:37.259Z,0
2017-06-28T01:30:46.236Z,0
2017-06-28T01:31:55.734Z,0
2017-06-28T01:33:04.847Z,0
2017-06-28T01:34:13.918Z,0
2017-06-28T01:35:23.267Z,0
2017-06-28T01:36:32.399Z,0
2017-06-28T01:37:41.487Z,0
2017-06-28T01:38:50.641Z,0
2017-06-28T01:39:59.861Z,0
2017-06-28T01:41:09.323Z,0
2017-06-28T01:42:18.430Z,0
2017-06-28T01:43:27.685Z,0
2017-06-28T01:44:36.843Z,0
2017-06-28T01:45:46.078Z,0
2017-06-28T01:46:55.638Z,0
2017-06-28T01:48:04.931Z,0
2017-06-28T01:49:14.141Z,0
2017-06-28T01:50:23.356Z,0
2017-06-28T01:51:32.482Z,0
2017-06-28T01:52:41.682Z,0
2017-06-28T01:53:50.631Z,0
2017-06-28T01:54:59.818Z,0
2017-06-28T01:56:08.948Z,0
2017-06-28T01:57:17.905Z,0
2017-06-28T01:58:27.534Z,0
2017-06-28T01:59:36.643Z,0
2017-06-28T02:00:45.772Z,0
2017-06-28T02:01:55.185Z,0
2017-06-28T02:03:04.422Z,0
2017-06-28T02:04:13.879Z,0
2017-06-28T02:05:23.010Z,0
2017-06-28T02:06:32.188Z,0
2017-06-28T02:07:41.185Z,0
2017-06-28T02:08:50.234Z,0
2017-06-28T02:09:59.516Z,0
2017-06-28T02:11:08.465Z,0
2017-06-28T02:12:17.460Z,0
2017-06-28T02:13:26.416Z,0
2017-06-28T02:14:35.724Z,0
2017-06-28T02:15:44.971Z,0
2017-06-28T02:16:53.923Z,0
2017-06-28T02:18:02.879Z,0
2017-06-28T02:19:11.826Z,0
2017-06-28T02:20:20.773Z,0
2017-06-28T02:21:29.969Z,0
2017-06-28T02:22:38.916Z,0
2017-06-28T02:23:47.875Z,0
2017-06-28T02:24:56.817Z,0
2017-06-28T02:26:05.854Z,0
2017-06-28T02:27:15.062Z,0
2017-06-28T02:28:24.012Z,0
2017-06-28T02:29:32.964Z,0
2017-06-28T02:30:41.916Z,0
2017-06-28T02:31:50.863Z,0
2017-06-28T02:33:00.057Z,0
2017-06-28T02:34:09.005Z,0
2017-06-28T02:35:17.954Z,0
2017-06-28T02:36:26.915Z,0
2017-06-28T02:37:35.866Z,0
2017-06-28T02:38:45.065Z,0
2017-06-28T02:39:54.019Z,0
2017-06-28T02:41:02.968Z,0
2017-06-28T02:42:11.918Z,0
2017-06-28T02:43:20.871Z,0
2017-06-28T02:44:30.070Z,0
2017-06-28T02:45:39.017Z,0
2017-06-28T02:46:47.974Z,0
2017-06-28T02:47:57.245Z,0
2017-06-28T02:49:06.200Z,0
2017-06-28T02:50:15.402Z,0
2017-06-28T02:51:24.346Z,0
2017-06-28T02:52:33.313Z,0
2017-06-28T02:53:42.265Z,0
2017-06-28T02:54:51.216Z,0
2017-06-28T02:56:00.417Z,0
2017-06-28T02:57:09.367Z,0
2017-06-28T02:58:18.313Z,0
2017-06-28T02:59:27.266Z,0
2017-06-28T03:00:36.208Z,0
2017-06-28T03:01:45.409Z,0
2017-06-28T03:02:54.361Z,0
2017-06-28T03:04:03.304Z,0
2017-06-28T03:05:12.243Z,0
2017-06-28T03:06:21.196Z,0
2017-06-28T03:07:30.451Z,0
2017-06-28T03:08:39.737Z,0
2017-06-28T03:09:48.694Z,0
2017-06-28T03:10:57.640Z,0
2017-06-28T03:12:06.913Z,0
2017-06-28T03:13:16.116Z,0
2017-06-28T03:14:25.071Z,0
2017-06-28T03:15:34.015Z,0
2017-06-28T03:16:42.965Z,5
2017-06-28T03:17:52.235Z,5
2017-06-28T03:19:01.450Z,5
2017-06-28T03:20:10.412Z,5
2017-06-28T03:21:19.365Z,5
2017-06-28T03:22:28.307Z,5
2017-06-28T03:23:37.258Z,5
2017-06-28T03:24:46.449Z,5
2017-06-28T03:25:55.418Z,5
2017-06-28T03:27:04.371Z,5
2017-06-28T03:28:13.322Z,5
2017-06-28T03:29:22.278Z,5
2017-06-28T03:30:31.478Z,5
2017-06-28T03:31:40.431Z,5
2017-06-28T03:32:49.383Z,5
2017-06-28T03:33:58.335Z,5
2017-06-28T03:35:07.281Z,5
2017-06-28T03:36:16.477Z,5
2017-06-28T03:37:25.462Z,5
2017-06-28T03:38:34.405Z,5
2017-06-28T03:39:43.354Z,5
2017-06-28T03:40:52.619Z,5
2017-06-28T03:42:01.880Z,5
2017-06-28T03:43:10.829Z,5
2017-06-28T03:44:19.782Z,5
2017-06-28T03:45:28.732Z,5
2017-06-28T03:46:37.681Z,5
2017-06-28T03:47:46.880Z,5
2017-06-28T03:48:55.827Z,5
2017-06-28T03:50:04.785Z,5
2017-06-28T03:51:13.736Z,5
2017-06-28T03:52:22.690Z,5
2017-06-28T03:53:31.881Z,5
2017-06-28T03:54:41.167Z,5
2017-06-28T03:55:50.125Z,5
2017-06-28T03:57:05.344Z,5
2017-06-28T03:58:14.309Z,5
2017-06-28T03:59:23.573Z,5
2017-06-28T04:00:32.516Z,10
2017-06-28T04:01:41.461Z,10
2017-06-28T04:02:50.422Z,10
2017-06-28T04:03:59.373Z,10
2017-06-28T04:05:08.619Z,10
2017-06-28T04:06:17.565Z,10
2017-06-28T04:07:26.512Z,10
2017-06-28T04:08:35.467Z,10
2017-06-28T04:09:44.499Z,10
2017-06-28T04:10:53.693Z,10
2017-06-28T04:12:02.637Z,10
2017-06-28T04:13:11.609Z,10
2017-06-28T04:14:20.553Z,10
2017-06-28T04:15:29.501Z,10
2017-06-28T04:16:38.701Z,10
2017-06-28T04:17:47.648Z,10
2017-06-28T04:18:56.599Z,15
2017-06-28T04:20:05.590Z,15
2017-06-28T04:21:14.534Z,15
2017-06-28T04:22:23.734Z,15
2017-06-28T04:23:32.683Z,15
2017-06-28T04:24:41.638Z,15
2017-06-28T04:25:50.671Z,15
2017-06-28T04:26:59.618Z,15
2017-06-28T04:28:08.878Z,15
2017-06-28T04:29:17.823Z,15
2017-06-28T04:30:26.775Z,15
2017-06-28T04:31:35.720Z,15
2017-06-28T04:32:44.664Z,15
2017-06-28T04:33:53.936Z,20
2017-06-28T04:35:02.888Z,20
2017-06-28T04:36:11.918Z,20
2017-06-28T04:37:20.869Z,20
2017-06-28T04:38:29.822Z,25
2017-06-28T04:39:39.095Z,20
2017-06-28T04:40:48.073Z,20
2017-06-28T04:41:57.346Z,20
2017-06-28T04:43:06.293Z,20
2017-06-28T04:44:15.240Z,20
2017-06-28T04:45:24.443Z,20
2017-06-28T04:46:33.392Z,25
2017-06-28T04:47:42.341Z,25
2017-06-28T04:48:51.378Z,20
2017-06-28T04:50:00.326Z,20
2017-06-28T04:51:09.577Z,20
2017-06-28T04:52:18.529Z,20
2017-06-28T04:53:27.488Z,20
2017-06-28T04:54:36.443Z,20
2017-06-28T04:55:45.798Z,20
2017-06-28T04:56:55.053Z,20
2017-06-28T04:58:04.078Z,20
2017-06-28T04:59:13.127Z,20
2017-06-28T05:00:22.080Z,20
2017-06-28T05:01:31.033Z,20
2017-06-28T05:02:40.282Z,20
2017-06-28T05:03:49.319Z,20
2017-06-28T05:04:58.271Z,20
2017-06-28T05:06:07.223Z,20
2017-06-28T05:07:16.166Z,20
2017-06-28T05:08:25.369Z,20
2017-06-28T05:09:34.323Z,20
2017-06-28T05:10:43.360Z,20
2017-06-28T05:11:52.398Z,20
2017-06-28T05:13:01.345Z,20
2017-06-28T05:14:10.601Z,25
2017-06-28T05:15:19.551Z,30
2017-06-28T05:16:28.501Z,30
2017-06-28T05:17:37.442Z,35
2017-06-28T05:18:46.395Z,25
2017-06-28T05:19:55.645Z,20
2017-06-28T05:21:04.597Z,20
2017-06-28T05:22:13.543Z,20
2017-06-28T05:23:22.493Z,20
2017-06-28T05:24:31.444Z,25
2017-06-28T05:25:40.698Z,20
2017-06-28T05:26:49.649Z,20
2017-06-28T05:27:58.601Z,20
2017-06-28T05:29:07.639Z,20
2017-06-28T05:30:16.594Z,20
2017-06-28T05:31:25.842Z,25
2017-06-28T05:32:34.798Z,30
2017-06-28T05:33:44.085Z,30
2017-06-28T05:34:53.050Z,35
2017-06-28T05:36:02.094Z,30
2017-06-28T05:37:11.337Z,30
2017-06-28T05:38:20.286Z,25
2017-06-28T05:39:29.234Z,25
2017-06-28T05:40:38.188Z,25
2017-06-28T05:41:47.138Z,30
2017-06-28T05:42:56.335Z,35
2017-06-28T05:44:05.281Z,35
2017-06-28T05:45:14.249Z,35
2017-06-28T05:46:23.198Z,35
2017-06-28T05:47:32.146Z,35
2017-06-28T05:48:41.341Z,25
2017-06-28T05:49:50.298Z,30
2017-06-28T05:50:59.248Z,35
2017-06-28T05:52:08.231Z,35
2017-06-28T05:53:17.178Z,35
2017-06-28T05:54:26.435Z,40
2017-06-28T05:55:35.376Z,45
2017-06-28T05:56:44.337Z,40
2017-06-28T05:57:53.285Z,40
2017-06-28T05:59:02.238Z,40
2017-06-28T06:00:11.487Z,40
2017-06-28T06:01:20.430Z,35
2017-06-28T06:02:29.464Z,35
2017-06-28T06:03:38.416Z,40
2017-06-28T06:04:47.369Z,40
2017-06-28T06:05:56.946Z,40
2017-06-28T06:07:05.891Z,40
2017-06-28T06:08:14.837Z,40
2017-06-28T06:09:23.787Z,40
2017-06-28T06:10:32.737Z,40
2017-06-28T06:11:41.983Z,40
2017-06-28T06:12:50.935Z,40
2017-06-28T06:14:00.288Z,40
2017-06-28T06:15:09.240Z,40
2017-06-28T06:16:18.193Z,40
2017-06-28T06:17:27.388Z,40
2017-06-28T06:18:36.340Z,40
2017-06-28T06:19:45.287Z,40
2017-06-28T06:20:54.248Z,45
2017-06-28T06:22:03.200Z,40
2017-06-28T06:23:12.394Z,45
2017-06-28T06:24:21.358Z,40
2017-06-28T06:25:30.306Z,45
2017-06-28T06:26:39.252Z,45
2017-06-28T06:27:48.526Z,45
2017-06-28T06:28:57.778Z,45
2017-06-28T06:30:06.732Z,45
2017-06-28T06:31:15.764Z,45
2017-06-28T06:32:24.708Z,45
2017-06-28T06:33:33.659Z,45
2017-06-28T06:34:43.272Z,45
2017-06-28T06:35:52.212Z,45
2017-06-28T06:37:01.167Z,45
2017-06-28T06:38:10.122Z,55
2017-06-28T06:39:19.074Z,45
2017-06-28T06:40:28.326Z,50
2017-06-28T06:41:37.606Z,50
2017-06-28T06:42:46.558Z,50
2017-06-28T06:43:55.507Z,50
2017-06-28T06:45:04.467Z,50
2017-06-28T06:46:13.718Z,50
2017-06-28T06:47:22.666Z,50
2017-06-28T06:48:31.623Z,50
2017-06-28T06:49:40.619Z,50
2017-06-28T06:50:49.570Z,50
2017-06-28T06:51:58.774Z,55
2017-06-28T06:53:07.719Z,50
2017-06-28T06:54:16.667Z,55
2017-06-28T06:55:25.616Z,55
2017-06-28T06:56:34.575Z,55
2017-06-28T06:57:44.477Z,55
2017-06-28T06:58:53.439Z,55
2017-06-28T07:00:02.399Z,55
2017-06-28T07:01:11.349Z,55
2017-06-28T07:02:20.306Z,55
2017-06-28T07:03:29.500Z,55
2017-06-28T07:04:38.451Z,55
2017-06-28T07:05:47.726Z,55
2017-06-28T07:06:56.676Z,55
2017-06-28T07:08:05.633Z,55
2017-06-28T07:09:14.884Z,60
2017-06-28T07:10:23.829Z,60
2017-06-28T07:11:32.771Z,55
2017-06-28T07:12:42.063Z,60
2017-06-28T07:13:51.024Z,60
2017-06-28T07:15:00.279Z,60
2017-06-28T07:16:09.240Z,60
2017-06-28T07:17:18.193Z,60
2017-06-28T07:18:27.146Z,55
2017-06-28T07:19:36.189Z,60
2017-06-28T07:20:45.441Z,55
2017-06-28T07:21:54.719Z,55
2017-06-28T07:23:03.796Z,55
2017-06-28T07:24:13.563Z,55
2017-06-28T07:25:22.690Z,55
2017-06-28T07:26:31.940Z,60
2017-06-28T07:27:40.891Z,60
2017-06-28T07:28:49.850Z,60
2017-06-28T07:29:59.825Z,60
2017-06-28T07:31:09.014Z,60
2017-06-28T07:32:18.217Z,60
2017-06-28T07:33:27.167Z,60
2017-06-28T07:34:36.124Z,60
2017-06-28T07:35:45.167Z,65
2017-06-28T07:36:54.113Z,60
2017-06-28T07:38:03.459Z,60
2017-06-28T07:39:12.493Z,60
2017-06-28T07:40:21.533Z,60
2017-06-28T07:41:30.485Z,60
2017-06-28T07:42:39.438Z,60
2017-06-28T07:43:48.654Z,60
2017-06-28T07:44:57.936Z,60
2017-06-28T07:46:06.892Z,60
2017-06-28T07:47:15.860Z,60
2017-06-28T07:48:24.812Z,65
2017-06-28T07:49:34.014Z,65
2017-06-28T07:50:42.970Z,60
2017-06-28T07:51:51.918Z,65
2017-06-28T07:53:00.874Z,65
2017-06-28T07:54:09.829Z,65
2017-06-28T07:55:19.031Z,65
2017-06-28T07:56:27.985Z,65
2017-06-28T07:57:36.933Z,65
2017-06-28T07:58:45.894Z,65
2017-06-28T07:59:55.167Z,65
2017-06-28T08:01:04.371Z,65
2017-06-28T08:02:13.414Z,65
2017-06-28T08:03:22.374Z,65
2017-06-28T08:04:31.325Z,60
2017-06-28T08:05:40.269Z,60
2017-06-28T08:06:49.518Z,65
2017-06-28T08:07:58.485Z,65
2017-06-28T08:09:07.437Z,65
2017-06-28T08:10:17.621Z,65
2017-06-28T08:11:26.577Z,65
2017-06-28T08:12:35.823Z,70
2017-06-28T08:13:44.779Z,70
2017-06-28T08:14:53.724Z,70
2017-06-28T08:16:02.715Z,80
2017-06-28T08:17:11.669Z,85
2017-06-28T08:18:20.958Z,85
2017-06-28T08:19:29.906Z,85
2017-06-28T08:20:38.949Z,80
2017-06-28T08:21:47.894Z,75
2017-06-28T08:22:56.841Z,75
2017-06-28T08:24:06.097Z,75
2017-06-28T08:25:15.504Z,75
2017-06-28T08:26:26.248Z,75
2017-06-28T08:27:35.209Z,70
2017-06-28T08:28:44.158Z,70
2017-06-28T08:29:53.363Z,70
2017-06-28T08:31:02.317Z,70
2017-06-28T08:32:11.269Z,70
2017-06-28T08:33:20.631Z,70
2017-06-28T08:34:29.582Z,75
2017-06-28T08:35:38.779Z,75
2017-06-28T08:36:47.734Z,75
2017-06-28T08:37:57.009Z,75
2017-06-28T08:39:06.057Z,75
2017-06-28T08:40:15.012Z,75
2017-06-28T08:41:24.298Z,75
2017-06-28T08:42:33.253Z,70
2017-06-28T08:43:42.214Z,70
2017-06-28T08:44:52.187Z,70
2017-06-28T08:46:01.488Z,70
2017-06-28T08:47:10.843Z,70
2017-06-28T08:48:19.801Z,70
2017-06-28T08:49:28.753Z,70
2017-06-28T08:50:37.703Z,70
2017-06-28T08:51:46.834Z,70
2017-06-28T08:52:56.328Z,75
2017-06-28T08:54:05.737Z,70
2017-06-28T08:55:14.970Z,70
2017-06-28T08:56:24.007Z,70
2017-06-28T08:57:33.116Z,75
2017-06-28T08:58:42.702Z,75
2017-06-28T08:59:51.931Z,75
2017-06-28T09:01:01.216Z,75
2017-06-28T09:02:10.652Z,75
2017-06-28T09:03:24.390Z,75
2017-06-28T09:04:41.067Z,75
2017-06-28T09:05:56.131Z,75
2017-06-28T09:07:08.465Z,75
2017-06-28T09:08:17.743Z,75
2017-06-28T09:09:27.003Z,85
2017-06-28T09:10:36.904Z,80
2017-06-28T09:11:46.192Z,80
2017-06-28T09:12:55.152Z,80
2017-06-28T09:14:04.425Z,85
2017-06-28T09:15:13.678Z,85
2017-06-28T09:16:22.632Z,85
2017-06-28T09:17:31.731Z,85
2017-06-28T09:18:40.957Z,95
2017-06-28T09:19:50.089Z,105
2017-06-28T09:20:59.785Z,95
2017-06-28T09:22:09.301Z,85
2017-06-28T09:23:18.582Z,90
2017-06-28T09:24:27.718Z,80
2017-06-28T09:25:36.840Z,85
2017-06-28T09:26:46.434Z,75
2017-06-28T09:27:55.645Z,80
2017-06-28T09:29:04.780Z,80
2017-06-28T09:30:13.805Z,85
2017-06-28T09:31:22.890Z,105
2017-06-28T09:32:32.171Z,90
2017-06-28T09:33:41.152Z,80
2017-06-28T09:34:50.130Z,80
2017-06-28T09:35:59.189Z,80
2017-06-28T09:37:08.171Z,80
2017-06-28T09:38:17.450Z,80
2017-06-28T09:39:26.429Z,80
2017-06-28T09:40:35.492Z,80
2017-06-28T09:41:44.469Z,80
2017-06-28T09:42:53.447Z,75
2017-06-28T09:44:02.765Z,75
2017-06-28T09:45:11.737Z,75
2017-06-28T09:46:20.715Z,80
2017-06-28T09:47:29.706Z,85
2017-06-28T09:48:38.682Z,85
2017-06-28T09:49:47.911Z,85
2017-06-28T09:50:56.885Z,95
2017-06-28T09:52:05.873Z,90
2017-06-28T09:53:14.835Z,85
2017-06-28T09:54:23.808Z,85
2017-06-28T09:55:33.038Z,65
2017-06-28T09:56:42.007Z,85
2017-06-28T09:57:50.996Z,85
2017-06-28T09:58:59.978Z,90
2017-06-28T10:00:08.957Z,80
2017-06-28T10:01:18.179Z,85
2017-06-28T10:02:27.161Z,85
2017-06-28T10:03:36.133Z,85
2017-06-28T10:04:45.114Z,85
2017-06-28T10:05:54.477Z,80
2017-06-28T10:07:03.704Z,85
2017-06-28T10:08:12.785Z,85
2017-06-28T10:09:21.772Z,90
2017-06-28T10:10:30.748Z,90
2017-06-28T10:11:40.056Z,90
2017-06-28T10:12:49.292Z,90
2017-06-28T10:13:58.266Z,90
2017-06-28T10:15:07.249Z,85
2017-06-28T10:16:16.220Z,80
2017-06-28T10:17:25.251Z,85
2017-06-28T10:18:34.490Z,90
2017-06-28T10:19:43.788Z,85
2017-06-28T10:20:52.857Z,75
2017-06-28T10:22:01.916Z,80
2017-06-28T10:23:10.899Z,95
2017-06-28T10:24:20.131Z,105
2017-06-28T10:25:29.178Z,110
2017-06-28T10:26:38.154Z,115
2017-06-28T10:27:47.138Z,125
2017-06-28T10:28:56.123Z,130
2017-06-28T10:30:05.356Z,120
2017-06-28T10:31:14.329Z,125
2017-06-28T10:32:23.303Z,125
2017-06-28T10:33:32.286Z,110
2017-06-28T10:34:41.319Z,110
2017-06-28T10:35:50.598Z,110
2017-06-28T10:36:59.566Z,105
2017-06-28T10:38:08.541Z,95
2017-06-28T10:39:17.553Z,80
2017-06-28T10:40:26.538Z,70
2017-06-28T10:41:35.813Z,85
2017-06-28T10:42:44.788Z,85
2017-06-28T10:43:53.786Z,65
2017-06-28T10:45:02.762Z,80
2017-06-28T10:46:11.740Z,55
2017-06-28T10:47:21.020Z,65
2017-06-28T10:48:29.996Z,70
2017-06-28T10:49:38.977Z,95
2017-06-28T10:50:47.962Z,95
2017-06-28T10:51:57.339Z,105
2017-06-28T10:53:06.663Z,90
2017-06-28T10:54:15.647Z,65
2017-06-28T10:55:24.624Z,75
2017-06-28T10:56:33.609Z,70
2017-06-28T10:57:42.590Z,90
2017-06-28T10:58:51.886Z,95
2017-06-28T11:00:00.880Z,95
2017-06-28T11:01:09.861Z,95
2017-06-28T11:02:18.837Z,90
2017-06-28T11:03:27.829Z,80
2017-06-28T11:04:37.060Z,80
2017-06-28T11:05:46.042Z,80
2017-06-28T11:06:55.026Z,75
2017-06-28T11:08:04.009Z,75
2017-06-28T11:09:13.090Z,70
2017-06-28T11:10:22.380Z,90
2017-06-28T11:11:31.362Z,95
2017-06-28T11:12:40.334Z,80
2017-06-28T11:13:49.324Z,50
2017-06-28T11:14:58.303Z,80
2017-06-28T11:16:07.627Z,80
2017-06-28T11:17:16.606Z,80
2017-06-28T11:18:25.580Z,80
2017-06-28T11:19:34.564Z,40
2017-06-28T11:20:43.522Z,35
2017-06-28T11:21:53.609Z,40
2017-06-28T11:23:02.607Z,50
2017-06-28T11:24:11.772Z,70
2017-06-28T11:25:20.727Z,50
2017-06-28T11:26:29.736Z,45
2017-06-28T11:27:39.206Z,50
2017-06-28T11:28:48.258Z,50
2017-06-28T11:29:57.274Z,70
2017-06-28T11:31:06.347Z,95
2017-06-28T11:32:15.421Z,105
2017-06-28T11:33:24.976Z,100
2017-06-28T11:34:34.102Z,75
2017-06-28T11:35:43.127Z,105
2017-06-28T11:36:52.335Z,120
2017-06-28T11:38:01.493Z,115
2017-06-28T11:39:10.961Z,120
2017-06-28T11:40:20.026Z,90
2017-06-28T11:41:29.246Z,100
2017-06-28T11:42:38.368Z,95
2017-06-28T11:43:47.697Z,90
2017-06-28T11:44:57.076Z,65
2017-06-28T11:46:06.144Z,100
2017-06-28T11:47:15.226Z,105
2017-06-28T11:48:24.281Z,95
2017-06-28T11:49:33.950Z,70
2017-06-28T11:50:43.525Z,60
2017-06-28T11:51:52.758Z,100
2017-06-28T11:53:01.724Z,100
2017-06-28T11:54:11.437Z,65
2017-06-28T11:55:20.391Z,60
2017-06-28T11:56:29.642Z,100
2017-06-28T11:57:38.604Z,100
2017-06-28T11:58:47.562Z,100
2017-06-28T11:59:56.544Z,75
2017-06-28T12:01:05.502Z,80
2017-06-28T12:02:14.800Z,85
2017-06-28T12:03:23.750Z,85
2017-06-28T12:04:32.707Z,75
2017-06-28T12:05:41.657Z,90
2017-06-28T12:06:50.604Z,60
2017-06-28T12:07:59.814Z,60
2017-06-28T12:09:08.762Z,60
2017-06-28T12:10:17.723Z,60
2017-06-28T12:11:26.683Z,65
2017-06-28T12:12:36.173Z,105
2017-06-28T12:13:45.490Z,85
2017-06-28T12:14:55.610Z,75
2017-06-28T12:16:04.711Z,65
2017-06-28T12:17:13.680Z,55
2017-06-28T12:18:22.658Z,55
2017-06-28T12:19:32.589Z,55
2017-06-28T12:20:44.382Z,55
2017-06-28T12:22:01.318Z,60
2017-06-28T12:23:17.137Z,60
2017-06-28T12:24:34.230Z,60
2017-06-28T12:25:43.619Z,65
2017-06-28T12:26:53.507Z,80
2017-06-28T12:28:02.468Z,70
2017-06-28T12:29:11.419Z,80
2017-06-28T12:30:20.844Z,70
2017-06-28T12:31:29.806Z,75
2017-06-28T12:32:38.760Z,80
2017-06-28T12:33:49.267Z,75
2017-06-28T12:34:58.533Z,80
2017-06-28T12:36:07.799Z,65
2017-06-28T12:37:16.904Z,65
2017-06-28T12:38:25.854Z,65
2017-06-28T12:39:34.809Z,65
2017-06-28T12:40:43.770Z,65
2017-06-28T12:41:53.116Z,70
2017-06-28T12:43:02.069Z,55
2017-06-28T12:44:11.031Z,55
2017-06-28T12:45:19.984Z,50
2017-06-28T12:46:28.942Z,60
2017-06-28T12:47:38.207Z,55
2017-06-28T12:48:47.225Z,45
2017-06-28T12:49:56.180Z,40
2017-06-28T12:51:05.134Z,40
2017-06-28T12:52:14.127Z,40
2017-06-28T12:53:23.337Z,40
2017-06-28T12:54:32.387Z,45
2017-06-28T12:55:41.338Z,45
2017-06-28T12:56:50.382Z,50
2017-06-28T12:57:59.430Z,50
2017-06-28T12:59:08.641Z,45
2017-06-28T13:00:17.599Z,55
2017-06-28T13:01:26.555Z,55
2017-06-28T13:02:35.516Z,65
2017-06-28T13:03:44.473Z,55
2017-06-28T13:04:53.822Z,50
2017-06-28T13:06:02.788Z,50
2017-06-28T13:07:11.738Z,45
2017-06-28T13:08:20.693Z,50
2017-06-28T13:09:29.649Z,50
2017-06-28T13:10:38.933Z,50
2017-06-28T13:11:47.880Z,50
2017-06-28T13:12:56.847Z,45
2017-06-28T13:14:05.801Z,55
2017-06-28T13:15:14.761Z,60
2017-06-28T13:16:24.012Z,55
2017-06-28T13:17:33.373Z,55
2017-06-28T13:18:42.331Z,55
2017-06-28T13:19:51.287Z,55
2017-06-28T13:21:00.241Z,60
2017-06-28T13:22:09.444Z,65
2017-06-28T13:23:18.724Z,60
2017-06-28T13:24:27.685Z,65
2017-06-28T13:25:36.637Z,70
2017-06-28T13:26:45.587Z,65
2017-06-28T13:27:54.793Z,70
2017-06-28T13:29:03.762Z,75
2017-06-28T13:30:12.719Z,70
2017-06-28T13:31:21.671Z,70
2017-06-28T13:32:30.620Z,95
2017-06-28T13:33:39.839Z,75
2017-06-28T13:34:49.113Z,60
2017-06-28T13:35:58.076Z,55
2017-06-28T13:37:07.038Z,50
2017-06-28T13:38:15.989Z,45
2017-06-28T13:39:25.514Z,35
2017-06-28T13:40:34.470Z,30
2017-06-28T13:41:43.430Z,25
2017-06-28T13:42:52.384Z,15
2017-06-28T13:44:01.341Z,15
2017-06-28T13:45:10.549Z,10
2017-06-28T13:46:19.504Z,10
2017-06-28T13:47:28.462Z,5
2017-06-28T13:48:37.415Z,5
2017-06-28T13:49:46.370Z,5
2017-06-28T13:50:55.626Z,5
2017-06-28T13:52:04.581Z,5
2017-06-28T13:53:13.622Z,10
2017-06-28T13:54:22.576Z,10
2017-06-28T13:55:31.542Z,10
2017-06-28T13:56:40.742Z,5
2017-06-28T13:57:49.703Z,5
2017-06-28T13:58:58.659Z,5
2017-06-28T14:00:07.620Z,10
2017-06-28T14:01:16.580Z,10
2017-06-28T14:02:25.787Z,15
2017-06-28T14:03:34.832Z,15
2017-06-28T14:04:44.190Z,15
2017-06-28T14:05:53.146Z,10
2017-06-28T14:07:02.102Z,10
2017-06-28T14:08:11.354Z,10
2017-06-28T14:09:20.312Z,5
2017-06-28T14:10:29.350Z,10
2017-06-28T14:11:38.298Z,10
2017-06-28T14:12:47.254Z,10
2017-06-28T14:13:56.482Z,10
2017-06-28T14:15:05.450Z,15
2017-06-28T14:16:14.409Z,15
2017-06-28T14:17:23.363Z,15
2017-06-28T14:18:32.328Z,15
2017-06-28T14:19:41.926Z,15
2017-06-28T14:20:50.880Z,10
2017-06-28T14:21:59.828Z,10
2017-06-28T14:23:08.887Z,10
2017-06-28T14:24:17.839Z,10
2017-06-28T14:25:27.098Z,10
2017-06-28T14:26:36.054Z,10
2017-06-28T14:27:45.013Z,10
2017-06-28T14:28:53.971Z,10
2017-06-28T14:30:02.921Z,10
2017-06-28T14:31:12.160Z,10
2017-06-28T14:32:21.436Z,10
2017-06-28T14:33:30.394Z,5
2017-06-28T14:34:39.345Z,5
2017-06-28T14:35:48.305Z,5
2017-06-28T14:36:57.514Z,5
2017-06-28T14:38:06.479Z,10
2017-06-28T14:39:15.430Z,10
2017-06-28T14:40:24.386Z,10
2017-06-28T14:41:33.341Z,15
2017-06-28T14:42:42.588Z,20
2017-06-28T14:43:51.547Z,30
2017-06-28T14:45:00.497Z,30
2017-06-28T14:46:09.534Z,30
2017-06-28T14:47:18.819Z,30
2017-06-28T14:48:28.091Z,25
2017-06-28T14:49:37.037Z,25
2017-06-28T14:50:45.997Z,25
2017-06-28T14:51:54.945Z,25
2017-06-28T14:53:03.903Z,25
2017-06-28T14:54:13.245Z,25
2017-06-28T14:55:22.201Z,25
2017-06-28T14:56:31.157Z,25
2017-06-28T14:57:40.119Z,25
2017-06-28T14:58:49.075Z,25
2017-06-28T14:59:58.364Z,25
2017-06-28T15:01:07.642Z,25
2017-06-28T15:02:16.602Z,25
2017-06-28T15:03:25.551Z,25
2017-06-28T15:04:34.497Z,25
2017-06-28T15:05:43.752Z,30
2017-06-28T15:06:52.790Z,30
2017-06-28T15:08:01.745Z,30
2017-06-28T15:09:10.699Z,35
2017-06-28T15:10:19.645Z,35
2017-06-28T15:11:28.851Z,35
2017-06-28T15:12:37.893Z,35
2017-06-28T15:13:47.187Z,35
2017-06-28T15:14:56.144Z,35
2017-06-28T15:16:05.093Z,35
2017-06-28T15:17:14.292Z,35
2017-06-28T15:18:23.242Z,40
2017-06-28T15:19:32.204Z,40
2017-06-28T15:20:41.159Z,40
2017-06-28T15:21:50.435Z,40
2017-06-28T15:22:59.638Z,45
2017-06-28T15:24:08.595Z,45
2017-06-28T15:25:17.541Z,45
2017-06-28T15:26:26.500Z,45
2017-06-28T15:27:35.535Z,45
2017-06-28T15:28:44.797Z,45
2017-06-28T15:29:53.758Z,50
2017-06-28T15:31:02.720Z,45
2017-06-28T15:32:11.713Z,40
2017-06-28T15:33:20.669Z,35
2017-06-28T15:34:29.872Z,30
2017-06-28T15:35:38.820Z,20
2017-06-28T15:36:47.865Z,20
2017-06-28T15:37:56.819Z,20
2017-06-28T15:39:05.774Z,20
2017-06-28T15:40:14.978Z,15
2017-06-28T15:41:23.929Z,15
2017-06-28T15:42:32.885Z,15
2017-06-28T15:43:41.846Z,20
2017-06-28T15:44:50.813Z,20
2017-06-28T15:46:00.023Z,20
2017-06-28T15:47:08.977Z,20
2017-06-28T15:48:17.941Z,20
2017-06-28T15:49:27.301Z,20
2017-06-28T15:50:36.252Z,25
2017-06-28T15:51:45.448Z,30
2017-06-28T15:52:54.429Z,35
2017-06-28T15:54:03.377Z,40
2017-06-28T15:55:12.322Z,40
2017-06-28T15:56:21.280Z,40
2017-06-28T15:57:30.485Z,40
2017-06-28T15:58:39.442Z,40
2017-06-28T15:59:48.486Z,40
2017-06-28T16:00:57.443Z,40
2017-06-28T16:02:06.400Z,40
2017-06-28T16:03:15.614Z,40
2017-06-28T16:04:24.568Z,40
2017-06-28T16:05:33.521Z,40
2017-06-28T16:06:42.517Z,35
2017-06-28T16:07:51.476Z,35
2017-06-28T16:09:01.060Z,35
2017-06-28T16:10:10.022Z,35
2017-06-28T16:11:18.975Z,35
2017-06-28T16:12:27.936Z,30
2017-06-28T16:13:36.889Z,30
2017-06-28T16:14:46.085Z,25
2017-06-28T16:15:55.032Z,25
2017-06-28T16:17:03.978Z,25
2017-06-28T16:18:12.944Z,25
2017-06-28T16:19:21.904Z,25
2017-06-28T16:20:31.164Z,25
2017-06-28T16:21:40.124Z,25
2017-06-28T16:22:49.164Z,25
2017-06-28T16:23:58.124Z,25
2017-06-28T16:25:07.166Z,30
2017-06-28T16:26:16.450Z,30
2017-06-28T16:27:25.403Z,30
2017-06-28T16:28:34.349Z,30
2017-06-28T16:29:43.299Z,30
2017-06-28T16:30:52.296Z,30
2017-06-28T16:32:01.550Z,30
2017-06-28T16:33:10.511Z,30
2017-06-28T16:34:19.466Z,30